sensor_id;sensor_type;location;lat;lon;timestamp;pressure;altitude;pressure_sealevel;temperature;humidity
36242;BME280;22283;42.748;12.732;2022-09-17T00:03:03;96971.44;;;21.81;77.32
36242;BME280;22283;42.748;12.732;2022-09-17T00:08:06;96974.34;;;21.79;77.07
36242;BME280;22283;42.748;12.732;2022-09-17T00:13:08;96969.38;;;21.76;77.07
36242;BME280;22283;42.748;12.732;2022-09-17T00:18:10;96970.63;;;21.80;76.88
36242;BME280;22283;42.748;12.732;2022-09-17T00:23:12;96952.41;;;21.76;76.93
36242;BME280;22283;42.748;12.732;2022-09-17T00:28:13;96944.97;;;21.71;77.30
36242;BME280;22283;42.748;12.732;2022-09-17T00:33:16;96957.19;;;21.74;76.98
36242;BME280;22283;42.748;12.732;2022-09-17T00:38:17;96946.63;;;21.72;77.23
36242;BME280;22283;42.748;12.732;2022-09-17T00:48:37;96940.00;;;21.75;76.91
36242;BME280;22283;42.748;12.732;2022-09-17T00:53:39;96932.09;;;21.73;77.24
36242;BME280;22283;42.748;12.732;2022-09-17T00:58:39;96933.38;;;21.71;77.34
36242;BME280;22283;42.748;12.732;2022-09-17T01:03:40;96933.78;;;21.68;78.63
36242;BME280;22283;42.748;12.732;2022-09-17T01:08:48;96929.88;;;21.57;80.37
36242;BME280;22283;42.748;12.732;2022-09-17T01:35:52;96900.13;;;21.19;83.93
36242;BME280;22283;42.748;12.732;2022-09-17T01:46:19;96890.00;;;20.94;85.21
36242;BME280;22283;42.748;12.732;2022-09-17T01:51:23;96883.19;;;20.85;84.92
36242;BME280;22283;42.748;12.732;2022-09-17T01:56:30;96865.22;;;20.79;84.00
36242;BME280;22283;42.748;12.732;2022-09-17T02:01:34;96854.25;;;20.74;82.68
36242;BME280;22283;42.748;12.732;2022-09-17T02:06:41;96850.72;;;20.67;81.04
36242;BME280;22283;42.748;12.732;2022-09-17T02:11:51;96843.31;;;20.69;79.92
36242;BME280;22283;42.748;12.732;2022-09-17T02:17:02;96837.53;;;20.72;79.08
36242;BME280;22283;42.748;12.732;2022-09-17T02:22:41;96813.53;;;20.63;79.17
36242;BME280;22283;42.748;12.732;2022-09-17T02:28:04;96810.63;;;20.58;79.83
36242;BME280;22283;42.748;12.732;2022-09-17T02:33:08;96794.72;;;20.50;80.00
36242;BME280;22283;42.748;12.732;2022-09-17T02:38:12;96799.47;;;20.48;80.03
36242;BME280;22283;42.748;12.732;2022-09-17T02:59:20;96775.69;;;20.45;79.22
36242;BME280;22283;42.748;12.732;2022-09-17T03:04:25;96769.72;;;20.43;79.12
36242;BME280;22283;42.748;12.732;2022-09-17T03:09:28;96767.22;;;20.48;78.34
36242;BME280;22283;42.748;12.732;2022-09-17T03:14:28;96743.66;;;20.44;78.75
36242;BME280;22283;42.748;12.732;2022-09-17T03:19:29;96741.81;;;20.37;78.85
36242;BME280;22283;42.748;12.732;2022-09-17T03:24:30;96738.28;;;20.37;78.79
36242;BME280;22283;42.748;12.732;2022-09-17T03:29:32;96723.22;;;20.36;78.80
36242;BME280;22283;42.748;12.732;2022-09-17T03:34:33;96711.44;;;20.50;77.75
36242;BME280;22283;42.748;12.732;2022-09-17T03:39:33;96716.81;;;20.63;76.76
36242;BME280;22283;42.748;12.732;2022-09-17T03:44:34;96725.06;;;20.69;75.65
36242;BME280;22283;42.748;12.732;2022-09-17T03:49:35;96723.63;;;20.59;75.87
36242;BME280;22283;42.748;12.732;2022-09-17T03:54:35;96737.91;;;20.53;76.33
36242;BME280;22283;42.748;12.732;2022-09-17T03:59:36;96729.22;;;20.51;76.48
36242;BME280;22283;42.748;12.732;2022-09-17T04:04:37;96725.09;;;20.49;76.88
36242;BME280;22283;42.748;12.732;2022-09-17T04:09:37;96732.94;;;20.50;76.30
36242;BME280;22283;42.748;12.732;2022-09-17T04:14:38;96718.03;;;20.54;75.93
36242;BME280;22283;42.748;12.732;2022-09-17T04:19:39;96715.94;;;20.70;75.60
36242;BME280;22283;42.748;12.732;2022-09-17T04:24:40;96719.44;;;20.77;75.53
36242;BME280;22283;42.748;12.732;2022-09-17T04:29:40;96725.47;;;20.72;74.95
36242;BME280;22283;42.748;12.732;2022-09-17T04:34:41;96726.09;;;20.68;75.16
36242;BME280;22283;42.748;12.732;2022-09-17T04:39:41;96729.00;;;20.59;76.06
36242;BME280;22283;42.748;12.732;2022-09-17T04:44:42;96739.31;;;20.62;76.47
36242;BME280;22283;42.748;12.732;2022-09-17T04:49:43;96731.25;;;20.76;76.13
36242;BME280;22283;42.748;12.732;2022-09-17T04:54:44;96722.53;;;20.87;75.99
36242;BME280;22283;42.748;12.732;2022-09-17T04:59:44;96714.25;;;20.95;75.86
36242;BME280;22283;42.748;12.732;2022-09-17T05:04:45;96705.13;;;20.96;75.79
36242;BME280;22283;42.748;12.732;2022-09-17T05:09:46;96692.94;;;20.94;76.11
36242;BME280;22283;42.748;12.732;2022-09-17T05:14:46;96674.16;;;20.87;76.26
36242;BME280;22283;42.748;12.732;2022-09-17T05:19:47;96671.31;;;20.75;76.77
36242;BME280;22283;42.748;12.732;2022-09-17T05:24:48;96661.78;;;20.73;76.99
36242;BME280;22283;42.748;12.732;2022-09-17T05:29:49;96651.03;;;20.73;76.93
36242;BME280;22283;42.748;12.732;2022-09-17T05:34:50;96660.91;;;20.85;76.75
36242;BME280;22283;42.748;12.732;2022-09-17T05:39:51;96647.44;;;20.92;76.75
36242;BME280;22283;42.748;12.732;2022-09-17T05:44:51;96638.50;;;20.98;76.69
36242;BME280;22283;42.748;12.732;2022-09-17T05:49:52;96614.25;;;21.11;76.40
36242;BME280;22283;42.748;12.732;2022-09-17T05:54:53;96623.50;;;21.22;75.75
36242;BME280;22283;42.748;12.732;2022-09-17T05:59:53;96636.25;;;21.40;74.98
36242;BME280;22283;42.748;12.732;2022-09-17T06:04:54;96629.13;;;21.52;74.48
36242;BME280;22283;42.748;12.732;2022-09-17T06:09:55;96670.69;;;21.88;73.65
36242;BME280;22283;42.748;12.732;2022-09-17T06:14:55;96690.72;;;22.24;71.93
36242;BME280;22283;42.748;12.732;2022-09-17T06:19:56;96700.13;;;22.40;71.47
36242;BME280;22283;42.748;12.732;2022-09-17T06:24:57;96711.03;;;22.26;71.76
36242;BME280;22283;42.748;12.732;2022-09-17T06:29:59;96726.03;;;22.09;72.73
36242;BME280;22283;42.748;12.732;2022-09-17T06:35:00;96727.91;;;22.08;73.06
36242;BME280;22283;42.748;12.732;2022-09-17T06:40:01;96731.00;;;22.37;72.83
36242;BME280;22283;42.748;12.732;2022-09-17T06:45:04;96720.13;;;22.69;71.80
36242;BME280;22283;42.748;12.732;2022-09-17T06:50:04;96716.25;;;22.83;70.80
36242;BME280;22283;42.748;12.732;2022-09-17T06:55:05;96715.44;;;22.82;70.93
36242;BME280;22283;42.748;12.732;2022-09-17T07:00:07;96698.69;;;22.99;70.81
36242;BME280;22283;42.748;12.732;2022-09-17T07:05:08;96692.41;;;23.35;69.33
36242;BME280;22283;42.748;12.732;2022-09-17T07:10:09;96679.91;;;23.71;69.02
36242;BME280;22283;42.748;12.732;2022-09-17T07:15:10;96681.03;;;23.93;67.51
36242;BME280;22283;42.748;12.732;2022-09-17T07:20:12;96661.19;;;24.11;64.43
36242;BME280;22283;42.748;12.732;2022-09-17T07:25:13;96666.94;;;24.26;63.33
36242;BME280;22283;42.748;12.732;2022-09-17T07:30:15;96674.34;;;24.31;63.37
36242;BME280;22283;42.748;12.732;2022-09-17T07:35:16;96669.09;;;24.24;63.80
36242;BME280;22283;42.748;12.732;2022-09-17T07:40:17;96654.19;;;24.45;63.37
36242;BME280;22283;42.748;12.732;2022-09-17T07:45:17;96654.19;;;24.45;63.13
36242;BME280;22283;42.748;12.732;2022-09-17T07:50:18;96658.03;;;24.38;63.60
36242;BME280;22283;42.748;12.732;2022-09-17T07:55:19;96652.53;;;24.44;63.76
36242;BME280;22283;42.748;12.732;2022-09-17T08:00:20;96649.94;;;24.49;62.84
36242;BME280;22283;42.748;12.732;2022-09-17T08:05:22;96666.53;;;24.53;62.88
36242;BME280;22283;42.748;12.732;2022-09-17T08:10:22;96660.06;;;24.42;63.05
36242;BME280;22283;42.748;12.732;2022-09-17T08:15:23;96672.03;;;24.46;63.74
36242;BME280;22283;42.748;12.732;2022-09-17T08:20:26;96678.75;;;24.67;62.62
36242;BME280;22283;42.748;12.732;2022-09-17T08:25:27;96666.63;;;24.46;61.27
36242;BME280;22283;42.748;12.732;2022-09-17T08:30:28;96666.94;;;24.03;62.29
36242;BME280;22283;42.748;12.732;2022-09-17T08:35:29;96675.41;;;24.18;61.57
36242;BME280;22283;42.748;12.732;2022-09-17T08:40:29;96663.00;;;24.64;61.00
36242;BME280;22283;42.748;12.732;2022-09-17T08:45:30;96656.81;;;24.92;59.63
36242;BME280;22283;42.748;12.732;2022-09-17T08:50:33;96663.25;;;25.03;58.85
36242;BME280;22283;42.748;12.732;2022-09-17T08:56:03;96664.91;;;25.16;54.96
36242;BME280;22283;42.748;12.732;2022-09-17T09:01:43;96659.84;;;25.65;53.50
36242;BME280;22283;42.748;12.732;2022-09-17T09:06:54;96633.72;;;25.87;52.48
36242;BME280;22283;42.748;12.732;2022-09-17T09:12:05;96636.44;;;25.87;51.66
36242;BME280;22283;42.748;12.732;2022-09-17T09:17:08;96622.47;;;25.95;50.04
36242;BME280;22283;42.748;12.732;2022-09-17T09:27:32;96617.44;;;25.70;50.78
36242;BME280;22283;42.748;12.732;2022-09-17T09:43:20;96626.31;;;26.33;48.46
36242;BME280;22283;42.748;12.732;2022-09-17T09:48:50;96633.97;;;26.75;47.61
36242;BME280;22283;42.748;12.732;2022-09-17T09:59:18;96651.31;;;26.02;50.35
36242;BME280;22283;42.748;12.732;2022-09-17T10:04:22;96649.09;;;25.82;51.21
36242;BME280;22283;42.748;12.732;2022-09-17T10:09:24;96641.53;;;25.84;52.06
36242;BME280;22283;42.748;12.732;2022-09-17T10:14:38;96636.66;;;26.36;51.67
36242;BME280;22283;42.748;12.732;2022-09-17T10:19:39;96663.97;;;26.85;49.87
36242;BME280;22283;42.748;12.732;2022-09-17T10:24:40;96663.56;;;26.98;48.58
36242;BME280;22283;42.748;12.732;2022-09-17T10:29:46;96646.84;;;27.07;49.20
36242;BME280;22283;42.748;12.732;2022-09-17T10:35:23;96617.38;;;27.15;49.97
36242;BME280;22283;42.748;12.732;2022-09-17T10:40:26;96602.59;;;27.06;49.44
36242;BME280;22283;42.748;12.732;2022-09-17T10:45:29;96598.50;;;27.53;48.54
36242;BME280;22283;42.748;12.732;2022-09-17T10:50:31;96592.22;;;27.79;47.59
36242;BME280;22283;42.748;12.732;2022-09-17T10:56:02;96593.44;;;27.93;47.91
36242;BME280;22283;42.748;12.732;2022-09-17T11:06:24;96676.44;;;27.74;47.43
36242;BME280;22283;42.748;12.732;2022-09-17T11:33:25;96967.41;;;17.68;65.59
36242;BME280;22283;42.748;12.732;2022-09-17T11:38:41;96998.34;;;17.18;69.73
36242;BME280;22283;42.748;12.732;2022-09-17T11:43:49;97024.22;;;16.49;76.93
36242;BME280;22283;42.748;12.732;2022-09-17T11:49:02;97072.78;;;16.13;79.67
36242;BME280;22283;42.748;12.732;2022-09-17T11:54:27;97056.25;;;16.49;81.85
36242;BME280;22283;42.748;12.732;2022-09-17T11:59:35;97071.19;;;16.35;80.69
36242;BME280;22283;42.748;12.732;2022-09-17T12:05:00;97094.19;;;16.36;83.91
36242;BME280;22283;42.748;12.732;2022-09-17T12:15:21;97081.94;;;16.11;86.12
36242;BME280;22283;42.748;12.732;2022-09-17T12:20:27;97079.28;;;16.50;86.88
36242;BME280;22283;42.748;12.732;2022-09-17T12:25:37;97093.25;;;17.14;79.64
36242;BME280;22283;42.748;12.732;2022-09-17T12:30:49;97078.59;;;17.48;79.41
36242;BME280;22283;42.748;12.732;2022-09-17T12:51:50;97122.63;;;17.98;73.85
36242;BME280;22283;42.748;12.732;2022-09-17T13:02:30;97144.09;;;17.52;66.96
36242;BME280;22283;42.748;12.732;2022-09-17T13:07:38;97164.53;;;16.99;68.05
36242;BME280;22283;42.748;12.732;2022-09-17T13:12:45;97191.06;;;16.53;64.35
36242;BME280;22283;42.748;12.732;2022-09-17T13:23:11;97213.59;;;16.51;65.57
36242;BME280;22283;42.748;12.732;2022-09-17T13:28:12;97227.22;;;16.72;67.06
36242;BME280;22283;42.748;12.732;2022-09-17T13:33:13;97246.53;;;16.90;60.66
36242;BME280;22283;42.748;12.732;2022-09-17T13:38:40;97237.97;;;16.56;60.87
36242;BME280;22283;42.748;12.732;2022-09-17T13:43:44;97244.75;;;16.83;61.20
36242;BME280;22283;42.748;12.732;2022-09-17T13:48:47;97257.03;;;16.36;58.63
36242;BME280;22283;42.748;12.732;2022-09-17T13:53:53;97257.91;;;16.12;58.67
36242;BME280;22283;42.748;12.732;2022-09-17T13:58:54;97260.22;;;16.15;58.54
36242;BME280;22283;42.748;12.732;2022-09-17T14:04:04;97264.53;;;16.33;61.04
36242;BME280;22283;42.748;12.732;2022-09-17T14:14:54;97266.50;;;16.47;56.17
36242;BME280;22283;42.748;12.732;2022-09-17T14:19:55;97259.66;;;16.53;54.08
36242;BME280;22283;42.748;12.732;2022-09-17T14:24:57;97246.28;;;16.61;54.38
36242;BME280;22283;42.748;12.732;2022-09-17T14:30:05;97246.09;;;16.62;54.29
36242;BME280;22283;42.748;12.732;2022-09-17T14:35:28;97260.50;;;16.53;54.94
36242;BME280;22283;42.748;12.732;2022-09-17T14:40:32;97261.38;;;16.37;56.50
36242;BME280;22283;42.748;12.732;2022-09-17T14:45:39;97246.41;;;16.84;54.47
36242;BME280;22283;42.748;12.732;2022-09-17T14:50:41;97236.34;;;16.94;54.39
36242;BME280;22283;42.748;12.732;2022-09-17T14:55:43;97226.28;;;17.04;54.92
36242;BME280;22283;42.748;12.732;2022-09-17T15:00:49;97201.13;;;17.44;53.16
36242;BME280;22283;42.748;12.732;2022-09-17T15:05:51;97181.41;;;17.45;51.46
36242;BME280;22283;42.748;12.732;2022-09-17T15:10:58;97199.28;;;17.45;52.69
36242;BME280;22283;42.748;12.732;2022-09-17T15:16:03;97203.69;;;17.38;53.41
36242;BME280;22283;42.748;12.732;2022-09-17T15:21:17;97216.88;;;17.39;52.76
36242;BME280;22283;42.748;12.732;2022-09-17T15:26:26;97221.50;;;17.45;52.31
36242;BME280;22283;42.748;12.732;2022-09-17T15:31:29;97223.06;;;17.40;52.49
36242;BME280;22283;42.748;12.732;2022-09-17T15:36:29;97238.44;;;17.38;52.64
36242;BME280;22283;42.748;12.732;2022-09-17T15:41:34;97240.75;;;17.41;52.18
36242;BME280;22283;42.748;12.732;2022-09-17T15:46:35;97234.66;;;17.55;51.22
36242;BME280;22283;42.748;12.732;2022-09-17T15:51:36;97234.38;;;17.50;51.82
36242;BME280;22283;42.748;12.732;2022-09-17T15:56:39;97232.63;;;17.57;50.99
36242;BME280;22283;42.748;12.732;2022-09-17T16:06:54;97266.31;;;17.12;53.19
36242;BME280;22283;42.748;12.732;2022-09-17T16:11:55;97285.50;;;16.68;55.04
36242;BME280;22283;42.748;12.732;2022-09-17T16:16:55;97293.69;;;16.51;55.70
36242;BME280;22283;42.748;12.732;2022-09-17T16:21:58;97305.06;;;16.53;54.46
36242;BME280;22283;42.748;12.732;2022-09-17T16:26:58;97319.25;;;16.53;54.45
36242;BME280;22283;42.748;12.732;2022-09-17T16:31:59;97343.44;;;16.19;54.74
36242;BME280;22283;42.748;12.732;2022-09-17T16:37:00;97352.25;;;15.95;56.83
36242;BME280;22283;42.748;12.732;2022-09-17T16:42:00;97359.91;;;15.73;56.65
36242;BME280;22283;42.748;12.732;2022-09-17T16:47:01;97376.66;;;15.58;56.76
36242;BME280;22283;42.748;12.732;2022-09-17T16:52:02;97388.63;;;15.45;57.43
36242;BME280;22283;42.748;12.732;2022-09-17T16:57:02;97386.06;;;15.36;54.84
36242;BME280;22283;42.748;12.732;2022-09-17T17:02:04;97395.06;;;15.69;54.74
36242;BME280;22283;42.748;12.732;2022-09-17T17:07:05;97409.50;;;15.58;54.75
36242;BME280;22283;42.748;12.732;2022-09-17T17:12:05;97415.41;;;15.44;53.63
36242;BME280;22283;42.748;12.732;2022-09-17T17:17:06;97423.06;;;15.05;55.03
36242;BME280;22283;42.748;12.732;2022-09-17T17:22:07;97429.13;;;14.89;55.76
36242;BME280;22283;42.748;12.732;2022-09-17T17:27:08;97444.66;;;14.75;56.33
36242;BME280;22283;42.748;12.732;2022-09-17T17:32:09;97445.06;;;14.63;56.39
36242;BME280;22283;42.748;12.732;2022-09-17T17:37:09;97462.72;;;14.64;56.14
36242;BME280;22283;42.748;12.732;2022-09-17T17:42:11;97470.38;;;14.49;56.67
36242;BME280;22283;42.748;12.732;2022-09-17T17:47:12;97462.41;;;14.49;53.75
36242;BME280;22283;42.748;12.732;2022-09-17T17:52:12;97489.03;;;14.49;55.11
36242;BME280;22283;42.748;12.732;2022-09-17T17:57:13;97499.38;;;14.52;58.87
36242;BME280;22283;42.748;12.732;2022-09-17T18:02:14;97503.69;;;14.53;53.67
36242;BME280;22283;42.748;12.732;2022-09-17T18:07:14;97507.88;;;14.38;55.04
36242;BME280;22283;42.748;12.732;2022-09-17T18:12:15;97511.13;;;14.32;55.15
36242;BME280;22283;42.748;12.732;2022-09-17T18:17:16;97519.94;;;14.32;57.54
36242;BME280;22283;42.748;12.732;2022-09-17T18:22:17;97529.66;;;14.23;59.33
36242;BME280;22283;42.748;12.732;2022-09-17T18:27:18;97522.88;;;14.11;59.63
36242;BME280;22283;42.748;12.732;2022-09-17T18:32:18;97519.75;;;13.98;60.71
36242;BME280;22283;42.748;12.732;2022-09-17T18:37:19;97531.25;;;13.89;61.82
36242;BME280;22283;42.748;12.732;2022-09-17T18:42:20;97545.28;;;13.81;63.57
36242;BME280;22283;42.748;12.732;2022-09-17T18:47:20;97554.84;;;13.74;64.09
36242;BME280;22283;42.748;12.732;2022-09-17T18:52:22;97568.91;;;13.47;65.01
36242;BME280;22283;42.748;12.732;2022-09-17T18:57:23;97574.13;;;13.39;66.34
36242;BME280;22283;42.748;12.732;2022-09-17T19:02:24;97588.38;;;13.28;65.84
36242;BME280;22283;42.748;12.732;2022-09-17T19:07:26;97592.88;;;13.27;64.68
36242;BME280;22283;42.748;12.732;2022-09-17T19:12:28;97600.38;;;13.22;63.92
36242;BME280;22283;42.748;12.732;2022-09-17T19:17:29;97608.09;;;13.16;63.76
36242;BME280;22283;42.748;12.732;2022-09-17T19:22:29;97612.56;;;13.15;64.42
36242;BME280;22283;42.748;12.732;2022-09-17T19:27:30;97615.78;;;13.09;63.99
36242;BME280;22283;42.748;12.732;2022-09-17T19:32:31;97621.78;;;13.11;64.89
36242;BME280;22283;42.748;12.732;2022-09-17T19:37:33;97627.09;;;13.11;67.03
36242;BME280;22283;42.748;12.732;2022-09-17T19:42:34;97644.44;;;12.96;64.64
36242;BME280;22283;42.748;12.732;2022-09-17T19:47:35;97645.94;;;12.89;66.70
36242;BME280;22283;42.748;12.732;2022-09-17T19:52:36;97657.41;;;12.79;65.82
36242;BME280;22283;42.748;12.732;2022-09-17T19:57:37;97652.38;;;12.76;64.57
36242;BME280;22283;42.748;12.732;2022-09-17T20:02:38;97664.25;;;12.72;65.44
36242;BME280;22283;42.748;12.732;2022-09-17T20:07:39;97680.59;;;12.77;63.06
36242;BME280;22283;42.748;12.732;2022-09-17T20:12:41;97690.78;;;12.72;64.51
36242;BME280;22283;42.748;12.732;2022-09-17T20:17:42;97694.38;;;12.62;65.36
36242;BME280;22283;42.748;12.732;2022-09-17T20:22:43;97705.19;;;12.39;66.60
36242;BME280;22283;42.748;12.732;2022-09-17T20:27:43;97721.06;;;12.29;67.29
36242;BME280;22283;42.748;12.732;2022-09-17T20:32:44;97737.06;;;12.18;68.72
36242;BME280;22283;42.748;12.732;2022-09-17T20:37:45;97730.44;;;12.03;69.25
36242;BME280;22283;42.748;12.732;2022-09-17T20:42:46;97738.66;;;12.00;68.70
36242;BME280;22283;42.748;12.732;2022-09-17T20:47:47;97748.78;;;11.95;69.37
36242;BME280;22283;42.748;12.732;2022-09-17T20:52:50;97758.22;;;11.88;70.09
36242;BME280;22283;42.748;12.732;2022-09-17T20:57:50;97754.22;;;11.72;71.40
36242;BME280;22283;42.748;12.732;2022-09-17T21:02:54;97763.19;;;11.81;71.12
36242;BME280;22283;42.748;12.732;2022-09-17T21:07:56;97783.16;;;11.64;71.98
36242;BME280;22283;42.748;12.732;2022-09-17T21:12:56;97782.47;;;11.51;72.94
36242;BME280;22283;42.748;12.732;2022-09-17T21:17:57;97790.88;;;11.56;72.92
36242;BME280;22283;42.748;12.732;2022-09-17T21:22:57;97781.00;;;11.58;73.12
36242;BME280;22283;42.748;12.732;2022-09-17T21:27:58;97787.78;;;11.51;72.90
36242;BME280;22283;42.748;12.732;2022-09-17T21:32:59;97793.59;;;11.45;73.12
36242;BME280;22283;42.748;12.732;2022-09-17T21:38:00;97781.38;;;11.21;74.84
36242;BME280;22283;42.748;12.732;2022-09-17T21:43:01;97812.44;;;11.19;75.11
36242;BME280;22283;42.748;12.732;2022-09-17T21:48:02;97798.88;;;11.13;75.77
36242;BME280;22283;42.748;12.732;2022-09-17T21:53:03;97816.06;;;11.07;75.64
36242;BME280;22283;42.748;12.732;2022-09-17T21:58:03;97818.72;;;10.84;77.31
36242;BME280;22283;42.748;12.732;2022-09-17T22:03:04;97825.97;;;10.71;78.03
36242;BME280;22283;42.748;12.732;2022-09-17T22:08:05;97821.75;;;10.69;78.28
36242;BME280;22283;42.748;12.732;2022-09-17T22:13:05;97829.19;;;10.64;78.91
36242;BME280;22283;42.748;12.732;2022-09-17T22:18:06;97831.75;;;10.65;76.73
36242;BME280;22283;42.748;12.732;2022-09-17T22:23:07;97832.56;;;10.43;78.49
36242;BME280;22283;42.748;12.732;2022-09-17T22:28:08;97835.66;;;10.37;79.46
36242;BME280;22283;42.748;12.732;2022-09-17T22:33:12;97842.53;;;10.40;79.95
36242;BME280;22283;42.748;12.732;2022-09-17T22:38:13;97843.94;;;10.32;80.52
36242;BME280;22283;42.748;12.732;2022-09-17T22:43:13;97841.09;;;10.36;80.15
36242;BME280;22283;42.748;12.732;2022-09-17T22:48:14;97840.53;;;10.19;80.28
36242;BME280;22283;42.748;12.732;2022-09-17T22:53:15;97829.22;;;10.06;80.94
36242;BME280;22283;42.748;12.732;2022-09-17T22:58:16;97837.13;;;9.95;81.55
36242;BME280;22283;42.748;12.732;2022-09-17T23:03:24;97832.56;;;10.08;81.41
36242;BME280;22283;42.748;12.732;2022-09-17T23:08:25;97828.66;;;10.14;81.25
36242;BME280;22283;42.748;12.732;2022-09-17T23:13:27;97843.31;;;10.18;81.22
36242;BME280;22283;42.748;12.732;2022-09-17T23:18:27;97838.72;;;10.08;81.43
36242;BME280;22283;42.748;12.732;2022-09-17T23:23:28;97833.19;;;10.12;80.98
36242;BME280;22283;42.748;12.732;2022-09-17T23:28:29;97836.81;;;10.10;81.46
36242;BME280;22283;42.748;12.732;2022-09-17T23:33:30;97837.16;;;10.17;81.11
36242;BME280;22283;42.748;12.732;2022-09-17T23:38:31;97834.75;;;10.03;81.52
36242;BME280;22283;42.748;12.732;2022-09-17T23:43:32;97836.91;;;9.98;82.07
36242;BME280;22283;42.748;12.732;2022-09-17T23:48:32;97844.81;;;9.98;81.63
36242;BME280;22283;42.748;12.732;2022-09-17T23:53:34;97839.50;;;9.87;81.72
36242;BME280;22283;42.748;12.732;2022-09-17T23:58:35;97835.00;;;9.76;81.64
